sensor_id;sensor_type;location;lat;lon;timestamp;P1;durP1;ratioP1;P2;durP2;ratioP2
2041;SDS011;1026;51.460;7.252;2024-02-15T00:02:22;9.83;;;6.93;;
2041;SDS011;1026;51.460;7.252;2024-02-15T00:04:49;6.80;;;5.60;;
2041;SDS011;1026;51.460;7.252;2024-02-15T00:07:16;9.10;;;5.67;;
2041;SDS011;1026;51.460;7.252;2024-02-15T00:09:44;10.43;;;7.60;;
2041;SDS011;1026;51.460;7.252;2024-02-15T00:12:11;9.47;;;6.93;;
2041;SDS011;1026;51.460;7.252;2024-02-15T00:14:38;8.37;;;6.60;;
2041;SDS011;1026;51.460;7.252;2024-02-15T00:17:05;12.70;;;6.67;;
2041;SDS011;1026;51.460;7.252;2024-02-15T00:19:32;10.70;;;6.77;;
2041;SDS011;1026;51.460;7.252;2024-02-15T00:21:59;7.07;;;5.73;;
2041;SDS011;1026;51.460;7.252;2024-02-15T00:24:26;8.80;;;6.10;;
2041;SDS011;1026;51.460;7.252;2024-02-15T00:26:53;6.40;;;5.40;;
2041;SDS011;1026;51.460;7.252;2024-02-15T00:29:20;7.07;;;5.27;;
2041;SDS011;1026;51.460;7.252;2024-02-15T00:31:47;8.50;;;6.30;;
2041;SDS011;1026;51.460;7.252;2024-02-15T00:34:16;9.43;;;6.13;;
2041;SDS011;1026;51.460;7.252;2024-02-15T00:36:44;6.83;;;6.13;;
2041;SDS011;1026;51.460;7.252;2024-02-15T00:39:11;8.47;;;5.57;;
2041;SDS011;1026;51.460;7.252;2024-02-15T00:41:40;9.43;;;6.93;;
2041;SDS011;1026;51.460;7.252;2024-02-15T00:44:09;10.27;;;6.33;;
2041;SDS011;1026;51.460;7.252;2024-02-15T00:46:38;10.37;;;6.40;;
2041;SDS011;1026;51.460;7.252;2024-02-15T00:49:07;6.27;;;5.67;;
2041;SDS011;1026;51.460;7.252;2024-02-15T00:51:35;9.37;;;6.00;;
2041;SDS011;1026;51.460;7.252;2024-02-15T00:54:02;7.00;;;6.10;;
2041;SDS011;1026;51.460;7.252;2024-02-15T00:56:30;12.03;;;5.50;;
2041;SDS011;1026;51.460;7.252;2024-02-15T00:58:59;7.53;;;6.43;;
2041;SDS011;1026;51.460;7.252;2024-02-15T01:01:29;6.77;;;6.17;;
2041;SDS011;1026;51.460;7.252;2024-02-15T01:03:56;8.57;;;6.10;;
2041;SDS011;1026;51.460;7.252;2024-02-15T01:06:23;6.03;;;5.53;;
2041;SDS011;1026;51.460;7.252;2024-02-15T01:08:51;12.40;;;6.67;;
2041;SDS011;1026;51.460;7.252;2024-02-15T01:11:18;7.00;;;4.90;;
2041;SDS011;1026;51.460;7.252;2024-02-15T01:13:45;10.83;;;5.50;;
2041;SDS011;1026;51.460;7.252;2024-02-15T01:16:12;15.37;;;6.37;;
2041;SDS011;1026;51.460;7.252;2024-02-15T01:18:39;9.63;;;5.40;;
2041;SDS011;1026;51.460;7.252;2024-02-15T01:21:06;7.37;;;6.70;;
2041;SDS011;1026;51.460;7.252;2024-02-15T01:23:33;6.40;;;5.50;;
2041;SDS011;1026;51.460;7.252;2024-02-15T01:26:03;8.37;;;6.50;;
2041;SDS011;1026;51.460;7.252;2024-02-15T01:28:31;7.33;;;6.30;;
2041;SDS011;1026;51.460;7.252;2024-02-15T01:30:59;9.47;;;7.03;;
2041;SDS011;1026;51.460;7.252;2024-02-15T01:33:26;8.87;;;7.10;;
2041;SDS011;1026;51.460;7.252;2024-02-15T01:35:53;10.90;;;6.77;;
2041;SDS011;1026;51.460;7.252;2024-02-15T01:38:21;9.30;;;6.60;;
2041;SDS011;1026;51.460;7.252;2024-02-15T01:40:48;10.10;;;7.67;;
2041;SDS011;1026;51.460;7.252;2024-02-15T01:43:15;10.53;;;7.40;;
2041;SDS011;1026;51.460;7.252;2024-02-15T01:45:42;13.53;;;6.50;;
2041;SDS011;1026;51.460;7.252;2024-02-15T01:48:09;10.57;;;5.50;;
2041;SDS011;1026;51.460;7.252;2024-02-15T01:50:37;16.70;;;6.50;;
2041;SDS011;1026;51.460;7.252;2024-02-15T01:53:06;12.90;;;6.50;;
2041;SDS011;1026;51.460;7.252;2024-02-15T01:55:34;17.50;;;6.70;;
2041;SDS011;1026;51.460;7.252;2024-02-15T01:58:02;10.40;;;6.67;;
2041;SDS011;1026;51.460;7.252;2024-02-15T02:00:29;8.03;;;6.57;;
2041;SDS011;1026;51.460;7.252;2024-02-15T02:02:57;10.80;;;7.40;;
2041;SDS011;1026;51.460;7.252;2024-02-15T02:05:29;9.00;;;7.53;;
2041;SDS011;1026;51.460;7.252;2024-02-15T02:07:57;10.60;;;6.77;;
2041;SDS011;1026;51.460;7.252;2024-02-15T02:10:28;14.57;;;7.40;;
2041;SDS011;1026;51.460;7.252;2024-02-15T02:12:59;9.40;;;8.50;;
2041;SDS011;1026;51.460;7.252;2024-02-15T02:15:29;13.47;;;8.93;;
2041;SDS011;1026;51.460;7.252;2024-02-15T02:17:58;14.23;;;9.20;;
2041;SDS011;1026;51.460;7.252;2024-02-15T02:20:25;9.83;;;8.10;;
2041;SDS011;1026;51.460;7.252;2024-02-15T02:22:53;10.50;;;8.07;;
2041;SDS011;1026;51.460;7.252;2024-02-15T02:25:26;11.37;;;7.17;;
2041;SDS011;1026;51.460;7.252;2024-02-15T02:27:53;18.93;;;9.50;;
2041;SDS011;1026;51.460;7.252;2024-02-15T02:30:22;11.23;;;7.37;;
2041;SDS011;1026;51.460;7.252;2024-02-15T02:32:49;12.87;;;7.97;;
2041;SDS011;1026;51.460;7.252;2024-02-15T02:35:16;16.20;;;6.87;;
2041;SDS011;1026;51.460;7.252;2024-02-15T02:37:43;7.47;;;6.40;;
2041;SDS011;1026;51.460;7.252;2024-02-15T02:40:11;7.43;;;5.60;;
2041;SDS011;1026;51.460;7.252;2024-02-15T02:43:01;13.90;;;7.40;;
2041;SDS011;1026;51.460;7.252;2024-02-15T02:45:26;9.73;;;6.23;;
2041;SDS011;1026;51.460;7.252;2024-02-15T02:47:53;8.00;;;5.00;;
2041;SDS011;1026;51.460;7.252;2024-02-15T02:50:21;9.53;;;5.73;;
2041;SDS011;1026;51.460;7.252;2024-02-15T02:52:51;6.57;;;5.87;;
2041;SDS011;1026;51.460;7.252;2024-02-15T02:55:18;7.97;;;6.83;;
2041;SDS011;1026;51.460;7.252;2024-02-15T02:57:45;9.67;;;5.97;;
2041;SDS011;1026;51.460;7.252;2024-02-15T03:00:13;10.90;;;5.40;;
2041;SDS011;1026;51.460;7.252;2024-02-15T03:02:42;11.80;;;5.07;;
2041;SDS011;1026;51.460;7.252;2024-02-15T03:05:10;10.43;;;5.03;;
2041;SDS011;1026;51.460;7.252;2024-02-15T03:07:38;9.60;;;4.80;;
2041;SDS011;1026;51.460;7.252;2024-02-15T03:10:08;10.83;;;5.20;;
2041;SDS011;1026;51.460;7.252;2024-02-15T03:12:41;10.97;;;6.10;;
2041;SDS011;1026;51.460;7.252;2024-02-15T03:15:14;9.43;;;5.33;;
2041;SDS011;1026;51.460;7.252;2024-02-15T03:17:42;7.67;;;4.37;;
2041;SDS011;1026;51.460;7.252;2024-02-15T03:20:10;9.43;;;4.60;;
2041;SDS011;1026;51.460;7.252;2024-02-15T03:22:53;5.40;;;4.30;;
2041;SDS011;1026;51.460;7.252;2024-02-15T03:25:20;11.47;;;5.00;;
2041;SDS011;1026;51.460;7.252;2024-02-15T03:27:51;7.00;;;5.27;;
2041;SDS011;1026;51.460;7.252;2024-02-15T03:30:19;9.47;;;5.23;;
2041;SDS011;1026;51.460;7.252;2024-02-15T03:32:47;5.83;;;5.20;;
2041;SDS011;1026;51.460;7.252;2024-02-15T03:35:18;6.50;;;4.83;;
2041;SDS011;1026;51.460;7.252;2024-02-15T03:37:46;9.53;;;5.10;;
2041;SDS011;1026;51.460;7.252;2024-02-15T03:40:17;10.70;;;5.50;;
2041;SDS011;1026;51.460;7.252;2024-02-15T03:42:45;14.87;;;5.17;;
2041;SDS011;1026;51.460;7.252;2024-02-15T03:45:19;10.90;;;4.70;;
2041;SDS011;1026;51.460;7.252;2024-02-15T03:47:47;12.37;;;4.30;;
2041;SDS011;1026;51.460;7.252;2024-02-15T03:50:16;7.53;;;4.73;;
2041;SDS011;1026;51.460;7.252;2024-02-15T03:52:45;7.27;;;5.20;;
2041;SDS011;1026;51.460;7.252;2024-02-15T03:55:12;5.03;;;4.50;;
2041;SDS011;1026;51.460;7.252;2024-02-15T03:57:39;9.70;;;4.90;;
2041;SDS011;1026;51.460;7.252;2024-02-15T04:00:13;7.63;;;5.37;;
2041;SDS011;1026;51.460;7.252;2024-02-15T04:02:47;11.37;;;4.03;;
2041;SDS011;1026;51.460;7.252;2024-02-15T04:05:15;10.57;;;4.63;;
2041;SDS011;1026;51.460;7.252;2024-02-15T04:07:44;8.83;;;4.93;;
2041;SDS011;1026;51.460;7.252;2024-02-15T04:10:11;9.33;;;4.77;;
2041;SDS011;1026;51.460;7.252;2024-02-15T04:12:38;6.87;;;4.20;;
2041;SDS011;1026;51.460;7.252;2024-02-15T04:15:09;6.47;;;4.10;;
2041;SDS011;1026;51.460;7.252;2024-02-15T04:17:41;9.30;;;3.80;;
2041;SDS011;1026;51.460;7.252;2024-02-15T04:20:09;6.33;;;4.10;;
2041;SDS011;1026;51.460;7.252;2024-02-15T04:22:38;7.27;;;4.30;;
2041;SDS011;1026;51.460;7.252;2024-02-15T04:25:08;9.23;;;3.80;;
2041;SDS011;1026;51.460;7.252;2024-02-15T04:27:44;4.93;;;3.70;;
2041;SDS011;1026;51.460;7.252;2024-02-15T04:30:16;5.03;;;3.90;;
2041;SDS011;1026;51.460;7.252;2024-02-15T04:32:43;5.47;;;3.90;;
2041;SDS011;1026;51.460;7.252;2024-02-15T04:35:11;7.33;;;3.80;;
2041;SDS011;1026;51.460;7.252;2024-02-15T04:37:40;4.50;;;3.40;;
2041;SDS011;1026;51.460;7.252;2024-02-15T04:40:19;8.63;;;3.23;;
2041;SDS011;1026;51.460;7.252;2024-02-15T04:42:46;4.80;;;3.40;;
2041;SDS011;1026;51.460;7.252;2024-02-15T04:45:13;6.40;;;4.00;;
2041;SDS011;1026;51.460;7.252;2024-02-15T04:47:42;10.20;;;3.50;;
2041;SDS011;1026;51.460;7.252;2024-02-15T04:50:12;5.77;;;3.50;;
2041;SDS011;1026;51.460;7.252;2024-02-15T04:52:39;4.93;;;2.70;;
2041;SDS011;1026;51.460;7.252;2024-02-15T04:55:09;4.50;;;3.20;;
2041;SDS011;1026;51.460;7.252;2024-02-15T04:57:36;4.90;;;2.83;;
2041;SDS011;1026;51.460;7.252;2024-02-15T05:00:04;7.20;;;3.40;;
2041;SDS011;1026;51.460;7.252;2024-02-15T05:02:39;3.30;;;3.00;;
2041;SDS011;1026;51.460;7.252;2024-02-15T05:05:08;4.13;;;3.40;;
2041;SDS011;1026;51.460;7.252;2024-02-15T05:07:40;4.07;;;3.10;;
2041;SDS011;1026;51.460;7.252;2024-02-15T05:10:08;6.67;;;2.70;;
2041;SDS011;1026;51.460;7.252;2024-02-15T05:12:37;5.43;;;3.17;;
2041;SDS011;1026;51.460;7.252;2024-02-15T05:15:04;5.57;;;2.67;;
2041;SDS011;1026;51.460;7.252;2024-02-15T05:17:39;8.23;;;3.07;;
2041;SDS011;1026;51.460;7.252;2024-02-15T05:20:10;8.93;;;3.17;;
2041;SDS011;1026;51.460;7.252;2024-02-15T05:22:38;5.50;;;2.87;;
2041;SDS011;1026;51.460;7.252;2024-02-15T05:25:09;3.90;;;3.00;;
2041;SDS011;1026;51.460;7.252;2024-02-15T05:27:35;6.60;;;2.87;;
2041;SDS011;1026;51.460;7.252;2024-02-15T05:30:03;4.00;;;2.93;;
2041;SDS011;1026;51.460;7.252;2024-02-15T05:32:36;4.70;;;2.70;;
2041;SDS011;1026;51.460;7.252;2024-02-15T05:35:09;3.83;;;2.90;;
2041;SDS011;1026;51.460;7.252;2024-02-15T05:37:37;3.97;;;2.77;;
2041;SDS011;1026;51.460;7.252;2024-02-15T05:40:05;3.63;;;2.37;;
2041;SDS011;1026;51.460;7.252;2024-02-15T05:42:33;5.70;;;3.33;;
2041;SDS011;1026;51.460;7.252;2024-02-15T05:48:05;11.20;;;3.70;;
2041;SDS011;1026;51.460;7.252;2024-02-15T05:50:34;3.87;;;2.03;;
2041;SDS011;1026;51.460;7.252;2024-02-15T05:53:01;3.57;;;1.80;;
2041;SDS011;1026;51.460;7.252;2024-02-15T05:55:29;7.63;;;2.43;;
2041;SDS011;1026;51.460;7.252;2024-02-15T05:58:00;4.40;;;2.47;;
2041;SDS011;1026;51.460;7.252;2024-02-15T06:00:28;6.33;;;2.90;;
2041;SDS011;1026;51.460;7.252;2024-02-15T06:02:57;4.80;;;3.07;;
2041;SDS011;1026;51.460;7.252;2024-02-15T06:05:24;5.80;;;2.13;;
2041;SDS011;1026;51.460;7.252;2024-02-15T06:07:51;6.20;;;2.97;;
2041;SDS011;1026;51.460;7.252;2024-02-15T06:10:18;4.93;;;2.40;;
2041;SDS011;1026;51.460;7.252;2024-02-15T06:12:45;11.53;;;2.40;;
2041;SDS011;1026;51.460;7.252;2024-02-15T06:15:11;3.83;;;2.63;;
2041;SDS011;1026;51.460;7.252;2024-02-15T06:17:43;7.53;;;2.80;;
2041;SDS011;1026;51.460;7.252;2024-02-15T06:20:11;5.23;;;2.70;;
2041;SDS011;1026;51.460;7.252;2024-02-15T06:22:40;7.03;;;2.27;;
2041;SDS011;1026;51.460;7.252;2024-02-15T06:25:08;4.30;;;2.30;;
2041;SDS011;1026;51.460;7.252;2024-02-15T06:27:39;3.33;;;2.60;;
2041;SDS011;1026;51.460;7.252;2024-02-15T06:30:09;2.57;;;2.37;;
2041;SDS011;1026;51.460;7.252;2024-02-15T06:32:56;4.77;;;2.03;;
2041;SDS011;1026;51.460;7.252;2024-02-15T06:35:42;5.07;;;1.97;;
2041;SDS011;1026;51.460;7.252;2024-02-15T06:38:28;7.83;;;3.07;;
2041;SDS011;1026;51.460;7.252;2024-02-15T06:41:13;3.70;;;2.20;;
2041;SDS011;1026;51.460;7.252;2024-02-15T06:43:40;2.90;;;2.43;;
2041;SDS011;1026;51.460;7.252;2024-02-15T06:46:07;4.43;;;2.77;;
2041;SDS011;1026;51.460;7.252;2024-02-15T06:48:36;6.60;;;3.13;;
2041;SDS011;1026;51.460;7.252;2024-02-15T06:51:04;5.00;;;3.20;;
2041;SDS011;1026;51.460;7.252;2024-02-15T06:53:32;6.57;;;2.43;;
2041;SDS011;1026;51.460;7.252;2024-02-15T06:55:59;3.67;;;2.73;;
2041;SDS011;1026;51.460;7.252;2024-02-15T06:58:26;2.80;;;2.50;;
2041;SDS011;1026;51.460;7.252;2024-02-15T07:00:53;3.80;;;2.10;;
2041;SDS011;1026;51.460;7.252;2024-02-15T07:03:28;2.40;;;2.20;;
2041;SDS011;1026;51.460;7.252;2024-02-15T07:05:56;5.07;;;2.73;;
2041;SDS011;1026;51.460;7.252;2024-02-15T07:08:23;6.43;;;2.13;;
2041;SDS011;1026;51.460;7.252;2024-02-15T07:10:51;3.90;;;2.20;;
2041;SDS011;1026;51.460;7.252;2024-02-15T07:13:18;3.90;;;2.77;;
2041;SDS011;1026;51.460;7.252;2024-02-15T07:15:45;12.50;;;3.17;;
2041;SDS011;1026;51.460;7.252;2024-02-15T07:18:12;6.03;;;2.93;;
2041;SDS011;1026;51.460;7.252;2024-02-15T07:20:42;3.60;;;2.80;;
2041;SDS011;1026;51.460;7.252;2024-02-15T07:23:11;5.97;;;2.83;;
2041;SDS011;1026;51.460;7.252;2024-02-15T07:25:38;7.40;;;2.07;;
2041;SDS011;1026;51.460;7.252;2024-02-15T07:28:05;4.73;;;3.13;;
2041;SDS011;1026;51.460;7.252;2024-02-15T07:30:33;5.57;;;3.20;;
2041;SDS011;1026;51.460;7.252;2024-02-15T07:33:00;5.20;;;2.97;;
2041;SDS011;1026;51.460;7.252;2024-02-15T07:35:27;6.40;;;3.37;;
2041;SDS011;1026;51.460;7.252;2024-02-15T07:37:57;6.20;;;2.60;;
2041;SDS011;1026;51.460;7.252;2024-02-15T07:40:24;4.13;;;2.90;;
2041;SDS011;1026;51.460;7.252;2024-02-15T07:42:56;7.73;;;2.87;;
2041;SDS011;1026;51.460;7.252;2024-02-15T07:45:45;3.03;;;2.70;;
2041;SDS011;1026;51.460;7.252;2024-02-15T07:48:15;4.70;;;2.97;;
2041;SDS011;1026;51.460;7.252;2024-02-15T07:50:48;6.63;;;3.10;;
2041;SDS011;1026;51.460;7.252;2024-02-15T07:53:15;2.57;;;2.37;;
2041;SDS011;1026;51.460;7.252;2024-02-15T07:55:42;5.53;;;3.30;;
2041;SDS011;1026;51.460;7.252;2024-02-15T07:58:10;4.67;;;2.90;;
2041;SDS011;1026;51.460;7.252;2024-02-15T08:00:37;10.67;;;2.90;;
2041;SDS011;1026;51.460;7.252;2024-02-15T08:03:04;4.43;;;2.27;;
2041;SDS011;1026;51.460;7.252;2024-02-15T08:05:31;7.70;;;3.07;;
2041;SDS011;1026;51.460;7.252;2024-02-15T08:08:00;6.40;;;3.43;;
2041;SDS011;1026;51.460;7.252;2024-02-15T08:10:27;7.67;;;3.60;;
2041;SDS011;1026;51.460;7.252;2024-02-15T08:12:55;5.27;;;3.20;;
2041;SDS011;1026;51.460;7.252;2024-02-15T08:15:24;7.60;;;3.50;;
2041;SDS011;1026;51.460;7.252;2024-02-15T08:17:54;5.03;;;2.70;;
2041;SDS011;1026;51.460;7.252;2024-02-15T08:20:21;4.87;;;2.47;;
2041;SDS011;1026;51.460;7.252;2024-02-15T08:22:48;3.13;;;2.50;;
2041;SDS011;1026;51.460;7.252;2024-02-15T08:25:15;8.43;;;2.87;;
2041;SDS011;1026;51.460;7.252;2024-02-15T08:27:46;7.00;;;2.23;;
2041;SDS011;1026;51.460;7.252;2024-02-15T08:30:16;3.20;;;2.70;;
2041;SDS011;1026;51.460;7.252;2024-02-15T08:32:48;5.90;;;2.60;;
2041;SDS011;1026;51.460;7.252;2024-02-15T08:35:17;4.53;;;2.00;;
2041;SDS011;1026;51.460;7.252;2024-02-15T08:37:46;2.80;;;2.47;;
2041;SDS011;1026;51.460;7.252;2024-02-15T08:40:14;3.63;;;2.10;;
2041;SDS011;1026;51.460;7.252;2024-02-15T08:42:44;3.60;;;2.70;;
2041;SDS011;1026;51.460;7.252;2024-02-15T08:45:12;6.10;;;2.40;;
2041;SDS011;1026;51.460;7.252;2024-02-15T08:47:39;2.73;;;2.10;;
2041;SDS011;1026;51.460;7.252;2024-02-15T08:50:08;3.93;;;2.07;;
2041;SDS011;1026;51.460;7.252;2024-02-15T08:52:36;2.10;;;1.73;;
2041;SDS011;1026;51.460;7.252;2024-02-15T08:55:07;2.00;;;1.80;;
2041;SDS011;1026;51.460;7.252;2024-02-15T08:57:37;6.43;;;1.80;;
2041;SDS011;1026;51.460;7.252;2024-02-15T09:00:07;3.70;;;1.67;;
2041;SDS011;1026;51.460;7.252;2024-02-15T09:02:40;2.30;;;2.10;;
2041;SDS011;1026;51.460;7.252;2024-02-15T09:05:07;7.50;;;1.90;;
2041;SDS011;1026;51.460;7.252;2024-02-15T09:07:35;8.33;;;3.93;;
2041;SDS011;1026;51.460;7.252;2024-02-15T09:10:07;3.00;;;1.90;;
2041;SDS011;1026;51.460;7.252;2024-02-15T09:12:39;3.33;;;2.30;;
2041;SDS011;1026;51.460;7.252;2024-02-15T09:15:07;3.10;;;1.87;;
2041;SDS011;1026;51.460;7.252;2024-02-15T09:17:35;4.13;;;2.50;;
2041;SDS011;1026;51.460;7.252;2024-02-15T09:20:06;3.77;;;2.40;;
2041;SDS011;1026;51.460;7.252;2024-02-15T09:22:35;3.30;;;2.10;;
2041;SDS011;1026;51.460;7.252;2024-02-15T09:25:02;2.10;;;1.77;;
2041;SDS011;1026;51.460;7.252;2024-02-15T09:27:29;3.10;;;1.93;;
2041;SDS011;1026;51.460;7.252;2024-02-15T09:29:56;3.23;;;1.90;;
2041;SDS011;1026;51.460;7.252;2024-02-15T09:32:23;5.20;;;2.10;;
2041;SDS011;1026;51.460;7.252;2024-02-15T09:34:50;2.53;;;2.13;;
2041;SDS011;1026;51.460;7.252;2024-02-15T09:37:17;4.20;;;1.63;;
2041;SDS011;1026;51.460;7.252;2024-02-15T09:39:44;5.30;;;1.83;;
2041;SDS011;1026;51.460;7.252;2024-02-15T09:42:11;8.23;;;2.80;;
2041;SDS011;1026;51.460;7.252;2024-02-15T09:44:38;4.03;;;1.90;;
2041;SDS011;1026;51.460;7.252;2024-02-15T09:47:06;9.80;;;2.40;;
2041;SDS011;1026;51.460;7.252;2024-02-15T09:49:47;5.77;;;2.30;;
2041;SDS011;1026;51.460;7.252;2024-02-15T09:52:15;1.63;;;1.53;;
2041;SDS011;1026;51.460;7.252;2024-02-15T09:54:44;4.30;;;2.20;;
2041;SDS011;1026;51.460;7.252;2024-02-15T09:57:13;2.83;;;2.17;;
2041;SDS011;1026;51.460;7.252;2024-02-15T09:59:40;9.03;;;2.57;;
2041;SDS011;1026;51.460;7.252;2024-02-15T10:02:08;2.50;;;1.80;;
2041;SDS011;1026;51.460;7.252;2024-02-15T10:04:39;6.67;;;1.93;;
2041;SDS011;1026;51.460;7.252;2024-02-15T10:07:06;3.13;;;1.90;;
2041;SDS011;1026;51.460;7.252;2024-02-15T10:09:35;3.70;;;1.90;;
2041;SDS011;1026;51.460;7.252;2024-02-15T10:12:09;4.20;;;2.50;;
2041;SDS011;1026;51.460;7.252;2024-02-15T10:14:36;3.13;;;1.90;;
2041;SDS011;1026;51.460;7.252;2024-02-15T10:17:08;4.90;;;1.60;;
2041;SDS011;1026;51.460;7.252;2024-02-15T10:19:38;2.93;;;2.00;;
2041;SDS011;1026;51.460;7.252;2024-02-15T10:22:06;3.20;;;2.20;;
2041;SDS011;1026;51.460;7.252;2024-02-15T10:24:34;3.83;;;1.80;;
2041;SDS011;1026;51.460;7.252;2024-02-15T10:27:03;8.93;;;2.40;;
2041;SDS011;1026;51.460;7.252;2024-02-15T10:29:33;3.13;;;1.60;;
2041;SDS011;1026;51.460;7.252;2024-02-15T10:32:00;5.10;;;1.77;;
2041;SDS011;1026;51.460;7.252;2024-02-15T10:34:28;4.60;;;1.63;;
2041;SDS011;1026;51.460;7.252;2024-02-15T10:37:12;6.60;;;2.00;;
2041;SDS011;1026;51.460;7.252;2024-02-15T10:39:43;5.40;;;1.80;;
2041;SDS011;1026;51.460;7.252;2024-02-15T10:42:10;12.93;;;1.77;;
2041;SDS011;1026;51.460;7.252;2024-02-15T10:44:38;6.20;;;2.17;;
2041;SDS011;1026;51.460;7.252;2024-02-15T10:47:07;2.20;;;1.70;;
2041;SDS011;1026;51.460;7.252;2024-02-15T10:49:35;2.77;;;2.03;;
2041;SDS011;1026;51.460;7.252;2024-02-15T10:52:08;4.37;;;1.70;;
2041;SDS011;1026;51.460;7.252;2024-02-15T10:54:41;9.70;;;1.80;;
2041;SDS011;1026;51.460;7.252;2024-02-15T10:57:37;1.37;;;1.27;;
2041;SDS011;1026;51.460;7.252;2024-02-15T11:00:36;3.67;;;2.40;;
2041;SDS011;1026;51.460;7.252;2024-02-15T11:03:09;3.37;;;2.00;;
2041;SDS011;1026;51.460;7.252;2024-02-15T11:05:54;4.80;;;1.60;;
2041;SDS011;1026;51.460;7.252;2024-02-15T11:08:26;1.77;;;1.67;;
2041;SDS011;1026;51.460;7.252;2024-02-15T11:10:53;2.90;;;1.27;;
2041;SDS011;1026;51.460;7.252;2024-02-15T11:13:25;7.83;;;1.80;;
2041;SDS011;1026;51.460;7.252;2024-02-15T11:15:52;2.50;;;1.50;;
2041;SDS011;1026;51.460;7.252;2024-02-15T11:18:41;4.87;;;2.20;;
2041;SDS011;1026;51.460;7.252;2024-02-15T11:21:52;7.53;;;1.80;;
2041;SDS011;1026;51.460;7.252;2024-02-15T11:24:32;7.40;;;1.80;;
2041;SDS011;1026;51.460;7.252;2024-02-15T11:27:02;3.13;;;1.90;;
2041;SDS011;1026;51.460;7.252;2024-02-15T11:29:50;3.50;;;1.70;;
2041;SDS011;1026;51.460;7.252;2024-02-15T11:35:26;2.73;;;1.63;;
2041;SDS011;1026;51.460;7.252;2024-02-15T11:37:59;3.23;;;2.00;;
2041;SDS011;1026;51.460;7.252;2024-02-15T11:43:47;6.50;;;2.10;;
2041;SDS011;1026;51.460;7.252;2024-02-15T11:46:28;2.63;;;2.20;;
2041;SDS011;1026;51.460;7.252;2024-02-15T11:48:58;4.60;;;2.07;;
2041;SDS011;1026;51.460;7.252;2024-02-15T11:51:31;3.40;;;1.33;;
2041;SDS011;1026;51.460;7.252;2024-02-15T11:54:10;2.97;;;1.60;;
2041;SDS011;1026;51.460;7.252;2024-02-15T11:59:47;5.10;;;2.20;;
2041;SDS011;1026;51.460;7.252;2024-02-15T12:02:39;2.07;;;1.77;;
2041;SDS011;1026;51.460;7.252;2024-02-15T12:05:29;4.67;;;1.60;;
2041;SDS011;1026;51.460;7.252;2024-02-15T12:08:15;2.47;;;1.60;;
2041;SDS011;1026;51.460;7.252;2024-02-15T12:11:01;1.53;;;1.40;;
2041;SDS011;1026;51.460;7.252;2024-02-15T12:13:49;4.80;;;1.77;;
2041;SDS011;1026;51.460;7.252;2024-02-15T12:16:35;1.70;;;1.53;;
2041;SDS011;1026;51.460;7.252;2024-02-15T12:19:21;7.73;;;2.00;;
2041;SDS011;1026;51.460;7.252;2024-02-15T12:21:48;8.13;;;1.80;;
2041;SDS011;1026;51.460;7.252;2024-02-15T12:24:15;4.07;;;1.60;;
2041;SDS011;1026;51.460;7.252;2024-02-15T12:26:43;4.63;;;1.70;;
2041;SDS011;1026;51.460;7.252;2024-02-15T12:29:16;5.67;;;1.37;;
2041;SDS011;1026;51.460;7.252;2024-02-15T12:31:44;3.63;;;2.47;;
2041;SDS011;1026;51.460;7.252;2024-02-15T12:34:11;1.80;;;1.53;;
2041;SDS011;1026;51.460;7.252;2024-02-15T12:36:39;4.47;;;2.00;;
2041;SDS011;1026;51.460;7.252;2024-02-15T12:39:08;2.63;;;1.47;;
2041;SDS011;1026;51.460;7.252;2024-02-15T12:41:47;6.53;;;1.60;;
2041;SDS011;1026;51.460;7.252;2024-02-15T12:44:18;2.43;;;1.97;;
2041;SDS011;1026;51.460;7.252;2024-02-15T12:46:54;5.37;;;1.73;;
2041;SDS011;1026;51.460;7.252;2024-02-15T12:49:29;5.83;;;1.80;;
2041;SDS011;1026;51.460;7.252;2024-02-15T12:55:20;3.03;;;1.93;;
2041;SDS011;1026;51.460;7.252;2024-02-15T12:57:49;4.60;;;1.50;;
2041;SDS011;1026;51.460;7.252;2024-02-15T13:00:25;2.20;;;2.00;;
2041;SDS011;1026;51.460;7.252;2024-02-15T13:02:58;4.07;;;1.70;;
2041;SDS011;1026;51.460;7.252;2024-02-15T13:05:26;7.57;;;1.90;;
2041;SDS011;1026;51.460;7.252;2024-02-15T13:07:55;12.67;;;2.10;;
2041;SDS011;1026;51.460;7.252;2024-02-15T13:10:24;4.13;;;1.20;;
2041;SDS011;1026;51.460;7.252;2024-02-15T13:12:52;6.67;;;1.70;;
2041;SDS011;1026;51.460;7.252;2024-02-15T13:15:19;4.47;;;2.00;;
2041;SDS011;1026;51.460;7.252;2024-02-15T13:17:48;6.70;;;1.63;;
2041;SDS011;1026;51.460;7.252;2024-02-15T13:20:17;2.13;;;1.60;;
2041;SDS011;1026;51.460;7.252;2024-02-15T13:22:46;4.07;;;1.77;;
2041;SDS011;1026;51.460;7.252;2024-02-15T13:25:16;2.20;;;1.50;;
2041;SDS011;1026;51.460;7.252;2024-02-15T13:27:53;3.33;;;1.60;;
2041;SDS011;1026;51.460;7.252;2024-02-15T13:30:21;3.63;;;1.70;;
2041;SDS011;1026;51.460;7.252;2024-02-15T13:32:50;2.80;;;1.37;;
2041;SDS011;1026;51.460;7.252;2024-02-15T13:35:17;4.33;;;1.70;;
2041;SDS011;1026;51.460;7.252;2024-02-15T13:37:46;7.10;;;1.50;;
2041;SDS011;1026;51.460;7.252;2024-02-15T13:40:16;3.57;;;2.13;;
2041;SDS011;1026;51.460;7.252;2024-02-15T13:42:43;2.17;;;1.70;;
2041;SDS011;1026;51.460;7.252;2024-02-15T13:45:20;5.87;;;2.30;;
2041;SDS011;1026;51.460;7.252;2024-02-15T13:47:49;2.20;;;1.60;;
2041;SDS011;1026;51.460;7.252;2024-02-15T13:50:19;6.80;;;1.80;;
2041;SDS011;1026;51.460;7.252;2024-02-15T13:52:46;5.33;;;2.00;;
2041;SDS011;1026;51.460;7.252;2024-02-15T13:55:14;7.37;;;2.17;;
2041;SDS011;1026;51.460;7.252;2024-02-15T13:57:43;6.43;;;2.30;;
2041;SDS011;1026;51.460;7.252;2024-02-15T14:00:14;2.40;;;1.50;;
2041;SDS011;1026;51.460;7.252;2024-02-15T14:02:54;5.00;;;1.50;;
2041;SDS011;1026;51.460;7.252;2024-02-15T14:05:30;2.90;;;1.53;;
2041;SDS011;1026;51.460;7.252;2024-02-15T14:07:59;3.63;;;1.70;;
2041;SDS011;1026;51.460;7.252;2024-02-15T14:10:28;3.60;;;1.70;;
2041;SDS011;1026;51.460;7.252;2024-02-15T14:12:57;1.87;;;1.77;;
2041;SDS011;1026;51.460;7.252;2024-02-15T14:15:25;5.30;;;1.97;;
2041;SDS011;1026;51.460;7.252;2024-02-15T14:17:52;4.77;;;1.90;;
2041;SDS011;1026;51.460;7.252;2024-02-15T14:20:19;5.17;;;1.80;;
2041;SDS011;1026;51.460;7.252;2024-02-15T14:22:48;4.43;;;1.90;;
2041;SDS011;1026;51.460;7.252;2024-02-15T14:25:23;6.30;;;1.30;;
2041;SDS011;1026;51.460;7.252;2024-02-15T14:27:50;2.57;;;1.60;;
2041;SDS011;1026;51.460;7.252;2024-02-15T14:30:18;4.20;;;1.67;;
2041;SDS011;1026;51.460;7.252;2024-02-15T14:33:04;3.97;;;2.50;;
2041;SDS011;1026;51.460;7.252;2024-02-15T14:35:35;2.93;;;2.10;;
2041;SDS011;1026;51.460;7.252;2024-02-15T14:38:06;5.10;;;2.20;;
2041;SDS011;1026;51.460;7.252;2024-02-15T14:40:37;1.87;;;1.27;;
2041;SDS011;1026;51.460;7.252;2024-02-15T14:43:08;4.57;;;1.70;;
2041;SDS011;1026;51.460;7.252;2024-02-15T14:45:44;1.90;;;1.30;;
2041;SDS011;1026;51.460;7.252;2024-02-15T14:48:12;4.17;;;1.60;;
2041;SDS011;1026;51.460;7.252;2024-02-15T14:50:42;1.70;;;1.60;;
2041;SDS011;1026;51.460;7.252;2024-02-15T14:53:10;3.07;;;1.67;;
2041;SDS011;1026;51.460;7.252;2024-02-15T14:55:37;5.80;;;1.47;;
2041;SDS011;1026;51.460;7.252;2024-02-15T14:58:06;1.93;;;1.63;;
2041;SDS011;1026;51.460;7.252;2024-02-15T15:00:40;1.70;;;1.60;;
2041;SDS011;1026;51.460;7.252;2024-02-15T15:03:16;2.87;;;1.50;;
2041;SDS011;1026;51.460;7.252;2024-02-15T15:05:44;2.70;;;1.33;;
2041;SDS011;1026;51.460;7.252;2024-02-15T15:08:30;3.10;;;1.73;;
2041;SDS011;1026;51.460;7.252;2024-02-15T15:11:16;2.87;;;1.70;;
2041;SDS011;1026;51.460;7.252;2024-02-15T15:14:01;3.70;;;1.87;;
2041;SDS011;1026;51.460;7.252;2024-02-15T15:16:32;7.40;;;1.60;;
2041;SDS011;1026;51.460;7.252;2024-02-15T15:19:01;2.13;;;1.60;;
2041;SDS011;1026;51.460;7.252;2024-02-15T15:21:30;3.60;;;1.60;;
2041;SDS011;1026;51.460;7.252;2024-02-15T15:23:57;3.47;;;1.63;;
2041;SDS011;1026;51.460;7.252;2024-02-15T15:26:24;3.37;;;2.30;;
2041;SDS011;1026;51.460;7.252;2024-02-15T15:28:51;9.90;;;1.83;;
2041;SDS011;1026;51.460;7.252;2024-02-15T15:31:18;3.87;;;1.50;;
2041;SDS011;1026;51.460;7.252;2024-02-15T15:33:48;2.90;;;1.40;;
2041;SDS011;1026;51.460;7.252;2024-02-15T15:36:16;2.03;;;1.60;;
2041;SDS011;1026;51.460;7.252;2024-02-15T15:38:51;4.80;;;1.80;;
2041;SDS011;1026;51.460;7.252;2024-02-15T15:41:24;7.67;;;1.80;;
2041;SDS011;1026;51.460;7.252;2024-02-15T15:43:50;7.80;;;2.23;;
2041;SDS011;1026;51.460;7.252;2024-02-15T15:46:17;2.97;;;1.77;;
2041;SDS011;1026;51.460;7.252;2024-02-15T15:48:44;3.00;;;1.80;;